Fairmont, MN

2:07 PM CST on November 24, 2014 (GMT -0600)
Jackson Municipal | Change Station
CLOSE
Current Station
Airport
Location: Jackson,
Elevation: 1447 ft
Nearby Weather Stations
Active Advisory: Wind Advisory, Special Statement

Elev 1447 ft 43.65 °N, 94.99 °W | Updated 33 minutes ago

Overcast
Overcast
21 °F
Feels Like 5 °F
N
22
Wind Variable Wind from NW
Gusts 33 mph

Today
High -- | Low -- °F
--% Chance of Precip.
Yesterday
High -- | Low -- °F
Precip. -- in
7:23 AM 4:45 PM
Waxing Crescent, 7% visible
Pressure 29.62 in
Visibility 10.0 miles
Clouds Overcast 3500 ft
Windchill 5 °F
Dew Point 12 °F
Humidity 68%
Rainfall 0.00 in
Snow Depth Not available.
UV 1 out of 12
Pollen .10 out of 12
Air Quality Not available.
Flu Activity Not available.
METAR KMJQ 241934Z AUTO 31019G29KT 10SM OVC035 M06/M11 A2962 RMK AO2

More Conditions Fewer Conditions

Pressure 29.62 in
Visibility 10.0 miles
Clouds Overcast 3500 ft
Windchill 5 °F
Dew Point 12 °F
Humidity 68%
Rainfall 0.00 in
Snow Depth Not available.
UV 1 out of 12
Pollen .10 out of 12
Air Quality Not available.
Flu Activity Not available.
METAR KMJQ 241934Z AUTO 31019G29KT 10SM OVC035 M06/M11 A2962 RMK AO2

More Conditions Fewer Conditions

10-Day Weather Forecast

Almanac

Astronomy

Nov. 24, 2014 Rise Set
Actual Time
Civil Twilight
Nautical Twilight
Astronomical Twilight
Moon
Length of Visible Light
Length of Day
Tomorrow will be .
, % of the Moon is Illuminated

Today's Extremes

State Highs State Lows

Community

WunderPhotos

Upload Photos

1,773,401 photos uploaded!

WunderBlogs® & News

Nearby

Air Quality

  Air Quality AQ Index Pollutant
Not available.

Snow Depth

Station Depth Elevation

Earthquake Activity

City Distance Mag. Time & Date
Minimum magnitude displayed is 2.5.

Coastal Water Temperatures

Place Temperature

Nearby Weather Stations